Time;durP1;ratioP1;P1;durP2;ratioP2;P2;SDS_P1;SDS_P2;PMS_P1;PMS_P2;Temp;Humidity;BMP_temperature;BMP_pressure;BME280_temperature;BME280_humidity;BME280_pressure;Samples;Min_cycle;Max_cycle;Signal;HPM_P1;HPM_P2
2023/04/20 00:02:21;;;;;;;14.93;4.87;;;;;;;;;;5115243;28;20381;-63
2023/04/20 00:04:48;;;;;;;4.40;3.10;;;;;;;;;;5115377;28;20031;-62
2023/04/20 00:07:15;;;;;;;4.90;3.07;;;;;;;;;;5115203;28;20028;-63
2023/04/20 00:09:42;;;;;;;3.40;2.50;;;;;;;;;;5112549;27;20024;-62
2023/04/20 00:12:09;;;;;;;3.43;2.30;;;;;;;;;;5110105;28;20080;-62
2023/04/20 00:14:35;;;;;;;2.17;1.53;;;;;;;;;;5110017;28;20036;-62
2023/04/20 00:17:02;;;;;;;3.53;2.27;;;;;;;;;;5110077;28;20063;-62
2023/04/20 00:19:32;;;;;;;3.07;1.57;;;;;;;;;;5111409;28;20036;-62
2023/04/20 00:21:59;;;;;;;7.67;1.97;;;;;;;;;;5115080;28;20076;-62
2023/04/20 00:24:25;;;;;;;2.97;1.90;;;;;;;;;;5114906;28;20105;-62
2023/04/20 00:26:53;;;;;;;2.07;1.53;;;;;;;;;;5114919;28;20508;-62
2023/04/20 00:29:20;;;;;;;4.30;1.60;;;;;;;;;;5114419;28;20096;-62
2023/04/20 00:31:48;;;;;;;4.60;2.07;;;;;;;;;;5112868;27;20026;-63
2023/04/20 00:34:15;;;;;;;3.77;2.53;;;;;;;;;;5109787;28;20016;-62
2023/04/20 00:36:41;;;;;;;3.10;1.90;;;;;;;;;;5109421;28;20055;-62
2023/04/20 00:39:08;;;;;;;5.13;2.00;;;;;;;;;;5109623;28;20036;-62
2023/04/20 00:41:35;;;;;;;5.23;2.07;;;;;;;;;;5110720;28;20369;-62
2023/04/20 00:44:02;;;;;;;4.17;1.80;;;;;;;;;;5114539;28;20031;-62
2023/04/20 00:46:28;;;;;;;2.57;1.77;;;;;;;;;;5114360;28;20488;-63
2023/04/20 00:48:56;;;;;;;2.80;1.97;;;;;;;;;;5114443;28;20077;-62
2023/04/20 00:51:23;;;;;;;2.60;1.77;;;;;;;;;;5113357;28;20023;-63
2023/04/20 00:53:49;;;;;;;3.97;1.87;;;;;;;;;;5112871;28;20023;-62
2023/04/20 00:56:18;;;;;;;2.67;1.53;;;;;;;;;;5109112;28;20023;-62
2023/04/20 00:58:45;;;;;;;3.83;2.93;;;;;;;;;;5109174;28;20027;-62
2023/04/20 01:01:16;;;;;;;4.87;2.53;;;;;;;;;;5109245;28;20024;-62
2023/04/20 01:03:43;;;;;;;4.97;3.17;;;;;;;;;;5109432;28;20103;-63
2023/04/20 01:06:10;;;;;;;3.67;2.57;;;;;;;;;;5114259;28;20069;-62
2023/04/20 01:08:45;;;;;;;4.17;2.80;;;;;;;;;;5113988;28;20023;-62
2023/04/20 01:11:11;;;;;;;6.15;3.10;;;;;;;;;;5114289;28;20016;-63
2023/04/20 01:13:38;;;;;;;4.23;3.00;;;;;;;;;;5114165;28;20035;-62
2023/04/20 01:16:05;;;;;;;4.73;2.97;;;;;;;;;;5113133;28;20027;-62
2023/04/20 01:18:42;;;;;;;4.23;2.87;;;;;;;;;;5108980;28;20028;-62
2023/04/20 01:21:09;;;;;;;2.43;1.80;;;;;;;;;;5108846;28;20023;-63
2023/04/20 01:23:36;;;;;;;4.20;2.60;;;;;;;;;;5108491;28;20047;-62
2023/04/20 01:26:07;;;;;;;6.33;2.40;;;;;;;;;;5109163;28;20053;-62
2023/04/20 01:28:33;;;;;;;5.80;3.30;;;;;;;;;;5113668;28;20035;-63
2023/04/20 01:31:00;;;;;;;3.03;2.47;;;;;;;;;;5113811;28;20051;-62
2023/04/20 01:33:27;;;;;;;3.63;2.57;;;;;;;;;;5113514;28;20470;-62
2023/04/20 01:35:57;;;;;;;11.60;3.00;;;;;;;;;;5113589;28;20016;-62
2023/04/20 01:38:24;;;;;;;6.53;3.37;;;;;;;;;;5112879;28;20145;-62
2023/04/20 01:40:51;;;;;;;6.37;3.83;;;;;;;;;;5108208;28;20020;-62
2023/04/20 01:43:18;;;;;;;4.13;2.50;;;;;;;;;;5108517;28;20123;-62
2023/04/20 01:45:45;;;;;;;7.97;3.43;;;;;;;;;;5108327;28;20146;-63
2023/04/20 01:48:12;;;;;;;5.27;3.47;;;;;;;;;;5108250;28;20485;-62
2023/04/20 01:50:38;;;;;;;4.03;2.77;;;;;;;;;;5113118;28;20020;-62
2023/04/20 01:53:05;;;;;;;2.73;2.00;;;;;;;;;;5113385;28;20024;-62
2023/04/20 01:55:32;;;;;;;3.70;1.87;;;;;;;;;;5113281;28;20016;-62
2023/04/20 01:57:59;;;;;;;3.20;2.53;;;;;;;;;;5113214;28;20023;-62
2023/04/20 02:00:25;;;;;;;4.83;3.10;;;;;;;;;;5113054;28;20020;-62
2023/04/20 02:02:52;;;;;;;5.20;2.97;;;;;;;;;;5107850;28;20020;-62
2023/04/20 02:05:19;;;;;;;4.23;3.03;;;;;;;;;;5108103;28;20059;-62
2023/04/20 02:07:45;;;;;;;8.37;3.67;;;;;;;;;;5107968;28;20381;-62
2023/04/20 02:10:12;;;;;;;3.93;2.63;;;;;;;;;;5108075;28;20050;-62
2023/04/20 02:12:39;;;;;;;5.47;2.50;;;;;;;;;;5111836;28;20022;-62
2023/04/20 02:15:08;;;;;;;6.10;4.17;;;;;;;;;;5113099;28;20558;-62
2023/04/20 02:17:38;;;;;;;5.33;2.67;;;;;;;;;;5112587;28;20090;-62
2023/04/20 02:20:13;;;;;;;4.53;3.10;;;;;;;;;;5112883;28;20035;-63
2023/04/20 02:22:40;;;;;;;9.27;3.07;;;;;;;;;;5113147;28;20037;-62
2023/04/20 02:25:07;;;;;;;6.37;3.87;;;;;;;;;;5108363;28;20110;-62
2023/04/20 02:27:34;;;;;;;5.90;2.77;;;;;;;;;;5107765;28;20377;-62
2023/04/20 02:30:01;;;;;;;6.90;2.67;;;;;;;;;;5107841;28;20427;-62
2023/04/20 02:32:28;;;;;;;8.37;2.90;;;;;;;;;;5107441;28;20500;-62
2023/04/20 02:34:54;;;;;;;5.07;3.40;;;;;;;;;;5111453;28;20026;-62
2023/04/20 02:37:21;;;;;;;3.73;2.63;;;;;;;;;;5112882;28;20094;-62
2023/04/20 02:39:48;;;;;;;2.93;2.23;;;;;;;;;;5112857;28;20077;-62
2023/04/20 02:42:15;;;;;;;5.80;3.23;;;;;;;;;;5112602;28;20028;-62
2023/04/20 02:44:41;;;;;;;9.73;3.00;;;;;;;;;;5112744;28;20024;-62
2023/04/20 02:47:08;;;;;;;4.33;3.30;;;;;;;;;;5108701;28;20095;-61
2023/04/20 02:49:35;;;;;;;9.57;4.60;;;;;;;;;;5107792;28;20024;-63
2023/04/20 02:52:02;;;;;;;3.13;2.47;;;;;;;;;;5107373;28;20022;-62
2023/04/20 02:54:29;;;;;;;5.77;3.50;;;;;;;;;;5107783;28;20089;-61
2023/04/20 02:56:57;;;;;;;5.67;4.00;;;;;;;;;;5110541;28;20020;-63
2023/04/20 02:59:24;;;;;;;5.33;2.77;;;;;;;;;;5112561;28;20434;-62
2023/04/20 03:01:51;;;;;;;3.93;2.63;;;;;;;;;;5112530;28;20020;-62
2023/04/20 03:04:18;;;;;;;10.27;3.20;;;;;;;;;;5112378;28;20016;-62
2023/04/20 03:06:44;;;;;;;5.20;3.00;;;;;;;;;;5112467;28;20026;-63
2023/04/20 03:09:11;;;;;;;9.07;4.23;;;;;;;;;;5109091;28;20430;-62
2023/04/20 03:11:38;;;;;;;5.50;3.97;;;;;;;;;;5107352;28;20473;-62
2023/04/20 03:14:05;;;;;;;8.13;3.97;;;;;;;;;;5107903;28;20027;-62
2023/04/20 03:16:31;;;;;;;6.53;4.13;;;;;;;;;;5111139;28;20023;-61
2023/04/20 03:18:58;;;;;;;9.13;4.83;;;;;;;;;;5113531;28;20072;-61
2023/04/20 03:21:25;;;;;;;6.93;4.80;;;;;;;;;;5116052;28;20016;-61
2023/04/20 03:23:51;;;;;;;7.00;4.70;;;;;;;;;;5116276;28;20031;-61
2023/04/20 03:26:19;;;;;;;6.10;4.70;;;;;;;;;;5115771;28;20024;-61
2023/04/20 03:28:46;;;;;;;7.07;4.37;;;;;;;;;;5116055;28;20379;-61
2023/04/20 03:31:12;;;;;;;7.10;5.30;;;;;;;;;;5113970;28;20080;-61
2023/04/20 03:33:39;;;;;;;7.60;5.20;;;;;;;;;;5110993;28;20146;-61
2023/04/20 03:36:06;;;;;;;6.80;5.37;;;;;;;;;;5111105;28;20419;-61
2023/04/20 03:38:32;;;;;;;12.57;6.07;;;;;;;;;;5110702;28;20036;-62
2023/04/20 03:40:59;;;;;;;7.10;4.63;;;;;;;;;;5112350;28;20015;-61
2023/04/20 03:43:26;;;;;;;9.73;5.37;;;;;;;;;;5115811;28;20366;-62
2023/04/20 03:45:52;;;;;;;5.17;4.27;;;;;;;;;;5115415;28;20024;-61
2023/04/20 03:48:19;;;;;;;5.77;4.30;;;;;;;;;;5115541;28;20040;-61
2023/04/20 03:50:46;;;;;;;4.67;3.47;;;;;;;;;;5115647;28;20020;-63
2023/04/20 03:53:12;;;;;;;4.23;3.47;;;;;;;;;;5114318;28;20126;-62
2023/04/20 03:55:40;;;;;;;8.70;4.60;;;;;;;;;;5110174;28;20034;-62
2023/04/20 03:58:06;;;;;;;4.63;3.50;;;;;;;;;;5110727;28;20581;-62
2023/04/20 04:00:33;;;;;;;8.33;4.83;;;;;;;;;;5110454;28;20027;-62
2023/04/20 04:03:02;;;;;;;6.00;3.83;;;;;;;;;;5110423;28;20381;-62
2023/04/20 04:05:29;;;;;;;4.93;3.80;;;;;;;;;;5115466;28;20031;-62
2023/04/20 04:07:55;;;;;;;4.73;3.83;;;;;;;;;;5115346;28;20061;-62
2023/04/20 04:10:22;;;;;;;6.70;3.93;;;;;;;;;;5115431;28;20085;-62
2023/04/20 04:12:49;;;;;;;4.57;3.63;;;;;;;;;;5115078;28;20019;-62
2023/04/20 04:15:18;;;;;;;7.37;3.93;;;;;;;;;;5114527;28;20030;-62
2023/04/20 04:17:45;;;;;;;5.40;3.83;;;;;;;;;;5110014;28;20024;-61
2023/04/20 04:20:12;;;;;;;5.03;3.90;;;;;;;;;;5109798;28;20074;-62
2023/04/20 04:22:38;;;;;;;4.63;3.30;;;;;;;;;;5109919;28;20028;-61
2023/04/20 04:25:06;;;;;;;5.50;3.40;;;;;;;;;;5110120;28;20492;-61
2023/04/20 04:27:33;;;;;;;5.10;3.30;;;;;;;;;;5114986;28;20031;-61
2023/04/20 04:30:02;;;;;;;5.20;3.90;;;;;;;;;;5114634;28;20027;-62
2023/04/20 04:32:29;;;;;;;9.13;3.60;;;;;;;;;;5114974;28;20054;-62
2023/04/20 04:34:56;;;;;;;4.53;3.50;;;;;;;;;;5114881;28;20089;-62
2023/04/20 04:37:23;;;;;;;4.13;3.27;;;;;;;;;;5114373;28;20020;-61
2023/04/20 04:39:50;;;;;;;5.30;3.63;;;;;;;;;;5109559;28;20435;-61
2023/04/20 04:42:17;;;;;;;4.80;3.67;;;;;;;;;;5109837;28;20385;-61
2023/04/20 04:44:43;;;;;;;4.77;3.23;;;;;;;;;;5109853;28;20028;-62
2023/04/20 04:47:13;;;;;;;4.90;3.53;;;;;;;;;;5109263;28;20032;-61
2023/04/20 04:49:39;;;;;;;5.37;3.73;;;;;;;;;;5114227;28;20426;-62
2023/04/20 04:52:07;;;;;;;3.83;3.13;;;;;;;;;;5114426;28;20414;-61
2023/04/20 04:54:34;;;;;;;4.87;3.60;;;;;;;;;;5114223;28;20031;-61
2023/04/20 04:57:00;;;;;;;4.80;4.00;;;;;;;;;;5114364;28;20148;-61
2023/04/20 04:59:27;;;;;;;5.50;4.07;;;;;;;;;;5114392;28;20541;-61
2023/04/20 05:01:54;;;;;;;18.67;3.57;;;;;;;;;;5109769;28;20362;-61
2023/04/20 05:04:21;;;;;;;6.00;3.97;;;;;;;;;;5109049;28;20041;-61
2023/04/20 05:06:47;;;;;;;5.93;4.03;;;;;;;;;;5109309;28;20039;-61
2023/04/20 05:09:14;;;;;;;7.10;4.63;;;;;;;;;;5108982;28;20047;-61
2023/04/20 05:11:41;;;;;;;5.17;4.03;;;;;;;;;;5112343;28;20035;-61
2023/04/20 05:14:08;;;;;;;5.07;3.57;;;;;;;;;;5114098;28;20024;-61
2023/04/20 05:16:35;;;;;;;8.27;5.50;;;;;;;;;;5114078;28;20081;-61
2023/04/20 05:19:01;;;;;;;6.47;4.33;;;;;;;;;;5113963;28;20538;-61
2023/04/20 05:21:28;;;;;;;6.53;3.20;;;;;;;;;;5113786;28;20028;-61
2023/04/20 05:23:55;;;;;;;5.17;3.97;;;;;;;;;;5110040;28;20039;-61
2023/04/20 05:26:21;;;;;;;8.07;5.67;;;;;;;;;;5108605;28;20077;-61
2023/04/20 05:28:48;;;;;;;8.30;4.57;;;;;;;;;;5108283;28;20042;-61
2023/04/20 05:31:15;;;;;;;5.27;4.13;;;;;;;;;;5108662;28;20473;-61
2023/04/20 05:33:44;;;;;;;6.67;4.70;;;;;;;;;;5111526;28;20024;-61
2023/04/20 05:36:11;;;;;;;6.43;4.53;;;;;;;;;;5113552;28;20102;-61
2023/04/20 05:38:38;;;;;;;6.50;3.37;;;;;;;;;;5112980;28;20016;-61
2023/04/20 05:41:05;;;;;;;4.67;3.73;;;;;;;;;;5113675;28;20397;-61
2023/04/20 05:43:32;;;;;;;5.77;3.87;;;;;;;;;;5113266;28;20024;-62
2023/04/20 05:45:58;;;;;;;5.47;4.20;;;;;;;;;;5110583;28;20032;-61
2023/04/20 05:48:26;;;;;;;4.27;3.40;;;;;;;;;;5107841;28;20410;-62
2023/04/20 05:50:53;;;;;;;6.80;4.80;;;;;;;;;;5108366;28;20023;-61
2023/04/20 05:53:22;;;;;;;5.30;3.67;;;;;;;;;;5108211;28;20389;-61
2023/04/20 05:55:51;;;;;;;5.43;3.63;;;;;;;;;;5108975;28;20381;-61
2023/04/20 05:58:18;;;;;;;4.10;3.30;;;;;;;;;;5113364;28;20381;-61
2023/04/20 06:00:45;;;;;;;4.33;3.80;;;;;;;;;;5113210;28;20038;-61
2023/04/20 06:03:11;;;;;;;4.93;3.40;;;;;;;;;;5113402;28;20019;-61
2023/04/20 06:05:38;;;;;;;6.70;4.17;;;;;;;;;;5113000;28;20541;-62
2023/04/20 06:08:05;;;;;;;5.20;3.77;;;;;;;;;;5110870;28;20035;-61
2023/04/20 06:10:33;;;;;;;5.37;4.00;;;;;;;;;;5107993;28;20020;-62
2023/04/20 06:12:59;;;;;;;4.40;3.30;;;;;;;;;;5107877;28;20477;-61
2023/04/20 06:15:26;;;;;;;5.83;4.67;;;;;;;;;;5106810;28;20459;-61
2023/04/20 06:17:53;;;;;;;5.37;4.20;;;;;;;;;;5109549;28;20030;-61
2023/04/20 06:20:19;;;;;;;4.03;3.63;;;;;;;;;;5113050;28;20073;-61
2023/04/20 06:22:46;;;;;;;7.23;4.17;;;;;;;;;;5112431;28;20035;-62
2023/04/20 06:25:14;;;;;;;6.03;4.93;;;;;;;;;;5113030;28;20027;-61
2023/04/20 06:27:41;;;;;;;6.17;4.10;;;;;;;;;;5112807;28;20016;-61
2023/04/20 06:30:08;;;;;;;6.70;4.13;;;;;;;;;;5111045;28;20032;-62
2023/04/20 06:32:35;;;;;;;5.83;4.57;;;;;;;;;;5107946;28;20035;-61
2023/04/20 06:35:03;;;;;;;5.10;4.30;;;;;;;;;;5107814;28;20489;-61
2023/04/20 06:37:30;;;;;;;6.47;4.60;;;;;;;;;;5108010;28;20084;-61
2023/04/20 06:39:56;;;;;;;7.93;4.73;;;;;;;;;;5108298;28;20051;-61
2023/04/20 06:42:23;;;;;;;6.10;4.20;;;;;;;;;;5112970;28;20427;-61
2023/04/20 06:44:50;;;;;;;4.40;3.10;;;;;;;;;;5112860;28;20016;-61
2023/04/20 06:47:17;;;;;;;4.70;3.70;;;;;;;;;;5112676;28;20029;-62
2023/04/20 06:49:43;;;;;;;6.87;4.87;;;;;;;;;;5114460;28;20035;-61
2023/04/20 06:52:10;;;;;;;4.50;3.60;;;;;;;;;;5115602;28;20110;-62
2023/04/20 06:54:37;;;;;;;4.83;4.17;;;;;;;;;;5111986;28;20027;-62
2023/04/20 06:57:04;;;;;;;9.37;4.53;;;;;;;;;;5111317;28;20051;-62
2023/04/20 06:59:30;;;;;;;5.00;4.03;;;;;;;;;;5111702;28;20022;-62
2023/04/20 07:02:00;;;;;;;7.23;4.13;;;;;;;;;;5111854;28;20024;-61
2023/04/20 07:04:27;;;;;;;7.00;3.97;;;;;;;;;;5116530;28;20030;-62
2023/04/20 07:06:53;;;;;;;7.57;2.93;;;;;;;;;;5116575;28;20019;-62
2023/04/20 07:09:21;;;;;;;5.03;2.73;;;;;;;;;;5116372;28;20027;-62
2023/04/20 07:11:48;;;;;;;4.73;2.97;;;;;;;;;;5116457;28;20024;-62
2023/04/20 07:14:15;;;;;;;4.77;2.83;;;;;;;;;;5115572;28;20098;-62
2023/04/20 07:16:41;;;;;;;3.40;2.80;;;;;;;;;;5111261;28;20024;-62
2023/04/20 07:19:08;;;;;;;8.37;3.90;;;;;;;;;;5111291;28;20389;-62
2023/04/20 07:21:35;;;;;;;2.47;2.10;;;;;;;;;;5111189;28;20102;-62
2023/04/20 07:24:02;;;;;;;3.23;2.33;;;;;;;;;;5111219;28;20088;-62
2023/04/20 07:26:28;;;;;;;3.47;2.67;;;;;;;;;;5115759;28;20530;-62
2023/04/20 07:28:55;;;;;;;3.23;2.63;;;;;;;;;;5116073;28;20073;-62
2023/04/20 07:34:41;;;;;;;6.07;3.17;;;;;;;;;;5115665;28;20419;-62
2023/04/20 07:37:08;;;;;;;2.70;2.33;;;;;;;;;;5113631;28;20085;-62
2023/04/20 07:39:34;;;;;;;3.53;2.40;;;;;;;;;;5111111;28;20023;-63
2023/04/20 07:42:03;;;;;;;4.27;3.13;;;;;;;;;;5110845;28;20032;-62
2023/04/20 07:44:30;;;;;;;3.90;3.37;;;;;;;;;;5110817;28;20146;-62
2023/04/20 07:46:56;;;;;;;3.50;3.00;;;;;;;;;;5111404;28;20431;-62
2023/04/20 07:49:24;;;;;;;3.53;2.63;;;;;;;;;;5115799;28;20035;-62
2023/04/20 07:51:51;;;;;;;4.13;3.03;;;;;;;;;;5115742;28;20012;-61
2023/04/20 07:54:18;;;;;;;5.47;3.07;;;;;;;;;;5115094;28;20057;-62
2023/04/20 07:56:44;;;;;;;4.50;3.43;;;;;;;;;;5115697;28;20103;-62
2023/04/20 07:59:11;;;;;;;5.17;3.13;;;;;;;;;;5114670;28;20023;-62
2023/04/20 08:01:38;;;;;;;3.17;2.60;;;;;;;;;;5110091;28;20020;-62
2023/04/20 08:04:05;;;;;;;5.40;3.00;;;;;;;;;;5110587;28;20027;-62
2023/04/20 08:06:32;;;;;;;3.23;2.57;;;;;;;;;;5110467;28;20019;-62
2023/04/20 08:08:58;;;;;;;3.40;2.70;;;;;;;;;;5110423;28;20047;-62
2023/04/20 08:11:25;;;;;;;4.00;2.77;;;;;;;;;;5114936;28;20037;-62
2023/04/20 08:13:52;;;;;;;4.03;2.90;;;;;;;;;;5115281;28;20016;-62
2023/04/20 08:16:19;;;;;;;5.70;3.60;;;;;;;;;;5115230;28;20031;-62
2023/04/20 08:18:46;;;;;;;4.50;2.90;;;;;;;;;;5115219;28;20058;-62
2023/04/20 08:21:13;;;;;;;3.90;3.13;;;;;;;;;;5115064;28;20458;-62
2023/04/20 08:23:40;;;;;;;3.67;2.87;;;;;;;;;;5110134;28;20019;-62
2023/04/20 08:26:07;;;;;;;5.27;2.23;;;;;;;;;;5110107;28;20035;-62
2023/04/20 08:28:33;;;;;;;4.30;3.37;;;;;;;;;;5109423;28;20031;-62
2023/04/20 08:31:00;;;;;;;2.67;1.87;;;;;;;;;;5109886;28;20019;-62
2023/04/20 08:33:27;;;;;;;2.40;1.90;;;;;;;;;;5114431;28;20416;-62
2023/04/20 08:35:54;;;;;;;5.10;2.10;;;;;;;;;;5114872;28;20029;-62
2023/04/20 08:38:21;;;;;;;2.13;1.70;;;;;;;;;;5114899;28;20110;-62
2023/04/20 08:40:47;;;;;;;2.93;2.10;;;;;;;;;;5114797;28;20060;-61
2023/04/20 08:43:14;;;;;;;2.70;2.13;;;;;;;;;;5114578;28;20088;-62
2023/04/20 08:45:42;;;;;;;2.40;1.97;;;;;;;;;;5109874;28;20012;-62
2023/04/20 08:48:10;;;;;;;2.43;1.83;;;;;;;;;;5109529;28;20494;-62
2023/04/20 08:50:40;;;;;;;7.57;2.77;;;;;;;;;;5109457;28;20032;-61
2023/04/20 08:53:08;;;;;;;2.60;1.97;;;;;;;;;;5109461;28;20023;-62
2023/04/20 08:55:35;;;;;;;2.50;1.90;;;;;;;;;;5113505;28;20047;-62
2023/04/20 08:58:02;;;;;;;2.93;2.10;;;;;;;;;;5114376;28;20458;-62
2023/04/20 09:00:29;;;;;;;3.30;2.57;;;;;;;;;;5114416;28;20073;-62
2023/04/20 09:02:57;;;;;;;3.40;2.40;;;;;;;;;;5113734;28;20015;-62
2023/04/20 09:05:26;;;;;;;2.87;2.27;;;;;;;;;;5114305;28;20027;-61
2023/04/20 09:07:53;;;;;;;3.13;2.10;;;;;;;;;;5109662;28;20035;-62
2023/04/20 09:10:22;;;;;;;4.93;3.23;;;;;;;;;;5109173;28;20099;-62
2023/04/20 09:12:50;;;;;;;3.30;2.67;;;;;;;;;;5108316;28;20032;-62
2023/04/20 09:15:26;;;;;;;4.03;2.83;;;;;;;;;;5109149;28;20337;-62
2023/04/20 09:17:53;;;;;;;4.43;3.27;;;;;;;;;;5113029;28;20470;-62
2023/04/20 09:20:27;;;;;;;5.30;2.87;;;;;;;;;;5114145;28;20501;-62
2023/04/20 09:22:54;;;;;;;4.72;3.53;;;;;;;;;;5113924;28;20102;-62
2023/04/20 09:25:21;;;;;;;3.90;3.13;;;;;;;;;;5114013;28;20024;-61
2023/04/20 09:28:01;;;;;;;5.80;3.33;;;;;;;;;;5113797;28;20057;-62
2023/04/20 09:30:47;;;;;;;4.77;3.00;;;;;;;;;;5108835;28;20067;-63
2023/04/20 09:33:15;;;;;;;2.50;2.20;;;;;;;;;;5108568;28;20551;-62
2023/04/20 09:35:42;;;;;;;3.83;2.87;;;;;;;;;;5108502;28;20026;-63
2023/04/20 09:38:10;;;;;;;5.10;3.03;;;;;;;;;;5108623;28;20020;-62
2023/04/20 09:40:37;;;;;;;4.10;3.23;;;;;;;;;;5113078;28;20051;-62
2023/04/20 09:43:12;;;;;;;4.20;3.63;;;;;;;;;;5113660;28;20387;-62
2023/04/20 09:45:39;;;;;;;2.40;2.20;;;;;;;;;;5113617;28;20095;-63
2023/04/20 09:48:06;;;;;;;4.03;3.23;;;;;;;;;;5113392;28;20062;-62
2023/04/20 09:50:36;;;;;;;3.37;2.70;;;;;;;;;;5113047;28;20024;-62
2023/04/20 09:53:04;;;;;;;5.47;3.87;;;;;;;;;;5108479;28;20508;-62
2023/04/20 09:55:31;;;;;;;3.63;3.13;;;;;;;;;;5107720;28;20026;-62
2023/04/20 09:57:58;;;;;;;4.53;3.30;;;;;;;;;;5108250;28;20038;-63
2023/04/20 10:00:27;;;;;;;3.80;2.87;;;;;;;;;;5108091;28;20467;-62
2023/04/20 10:02:54;;;;;;;4.63;3.53;;;;;;;;;;5113000;28;20030;-62
2023/04/20 10:05:32;;;;;;;3.43;2.33;;;;;;;;;;5113328;28;20058;-62
2023/04/20 10:08:02;;;;;;;5.40;3.27;;;;;;;;;;5112803;28;20031;-63
2023/04/20 10:10:29;;;;;;;4.90;3.67;;;;;;;;;;5113109;28;20028;-62
2023/04/20 10:13:00;;;;;;;5.77;3.50;;;;;;;;;;5112690;28;20050;-62
2023/04/20 10:15:40;;;;;;;3.83;3.03;;;;;;;;;;5108123;28;20038;-62
2023/04/20 10:18:22;;;;;;;4.23;3.00;;;;;;;;;;5108146;28;20027;-62
2023/04/20 10:20:48;;;;;;;4.13;2.93;;;;;;;;;;5108010;28;20185;-62
2023/04/20 10:23:17;;;;;;;3.07;2.23;;;;;;;;;;5108505;28;20378;-62
2023/04/20 10:25:55;;;;;;;3.10;2.30;;;;;;;;;;5112894;28;20493;-62
2023/04/20 10:28:22;;;;;;;3.37;2.37;;;;;;;;;;5112678;28;20485;-62
2023/04/20 10:30:52;;;;;;;2.97;2.13;;;;;;;;;;5112438;28;20401;-62
2023/04/20 10:33:19;;;;;;;3.20;2.77;;;;;;;;;;5113065;28;20019;-62
2023/04/20 10:35:50;;;;;;;2.10;1.80;;;;;;;;;;5111267;28;20110;-62
2023/04/20 10:38:33;;;;;;;3.23;2.17;;;;;;;;;;5107760;28;20542;-62
2023/04/20 10:41:10;;;;;;;1.53;1.43;;;;;;;;;;5107640;28;20492;-62
2023/04/20 10:43:42;;;;;;;4.33;2.90;;;;;;;;;;5107752;28;20125;-62
2023/04/20 10:46:15;;;;;;;4.03;2.60;;;;;;;;;;5109411;28;20019;-62
2023/04/20 10:49:00;;;;;;;1.90;1.50;;;;;;;;;;5112728;28;20126;-61
2023/04/20 10:51:27;;;;;;;2.80;2.30;;;;;;;;;;5112961;28;20016;-63
2023/04/20 10:54:04;;;;;;;3.53;2.07;;;;;;;;;;5112654;28;20039;-62
2023/04/20 10:56:37;;;;;;;6.47;2.80;;;;;;;;;;5112757;28;20020;-62
2023/04/20 10:59:11;;;;;;;2.37;1.90;;;;;;;;;;5109052;28;20027;-62
2023/04/20 11:01:38;;;;;;;2.70;2.00;;;;;;;;;;5107274;28;20015;-62
2023/04/20 11:04:06;;;;;;;3.03;2.10;;;;;;;;;;5107299;28;20047;-62
2023/04/20 11:06:33;;;;;;;2.90;2.00;;;;;;;;;;5107313;28;20463;-62
2023/04/20 11:08:59;;;;;;;4.03;2.67;;;;;;;;;;5110537;28;20036;-62
2023/04/20 11:11:27;;;;;;;2.67;1.97;;;;;;;;;;5112464;28;20016;-62
2023/04/20 11:14:10;;;;;;;2.17;1.63;;;;;;;;;;5112441;28;20045;-62
2023/04/20 11:16:37;;;;;;;11.97;2.37;;;;;;;;;;5112668;28;20016;-61
2023/04/20 11:19:04;;;;;;;4.20;2.00;;;;;;;;;;5112548;28;20529;-62
2023/04/20 11:21:37;;;;;;;3.27;2.23;;;;;;;;;;5108691;28;20385;-62
2023/04/20 11:24:05;;;;;;;3.13;1.87;;;;;;;;;;5107391;28;20064;-62
2023/04/20 11:26:42;;;;;;;6.73;1.73;;;;;;;;;;5107404;28;20027;-62
2023/04/20 11:29:11;;;;;;;2.73;1.77;;;;;;;;;;5107137;28;20047;-62
2023/04/20 11:31:38;;;;;;;2.63;1.90;;;;;;;;;;5111000;28;20024;-62
2023/04/20 11:34:07;;;;;;;2.27;1.83;;;;;;;;;;5112450;28;20020;-61
2023/04/20 11:36:38;;;;;;;2.53;2.00;;;;;;;;;;5115033;28;20059;-62
2023/04/20 11:39:08;;;;;;;3.10;2.03;;;;;;;;;;5115721;28;20107;-62
2023/04/20 11:41:37;;;;;;;4.40;2.63;;;;;;;;;;5115753;28;20026;-62
2023/04/20 11:44:05;;;;;;;2.27;1.93;;;;;;;;;;5111365;28;20065;-61
2023/04/20 11:46:37;;;;;;;1.90;1.50;;;;;;;;;;5111279;28;20012;-62
2023/04/20 11:49:04;;;;;;;1.87;1.57;;;;;;;;;;5110814;28;20111;-62
2023/04/20 11:51:31;;;;;;;3.33;2.03;;;;;;;;;;5110657;28;20036;-62
2023/04/20 11:53:58;;;;;;;2.40;1.83;;;;;;;;;;5114485;28;20107;-62
2023/04/20 11:56:25;;;;;;;3.70;2.10;;;;;;;;;;5115210;28;20028;-61
2023/04/20 11:58:51;;;;;;;2.80;2.10;;;;;;;;;;5115700;28;20030;-62
2023/04/20 12:01:18;;;;;;;2.03;1.67;;;;;;;;;;5115657;28;20036;-62
2023/04/20 12:03:45;;;;;;;2.07;1.50;;;;;;;;;;5115484;28;20043;-61
2023/04/20 12:06:12;;;;;;;2.67;1.70;;;;;;;;;;5111293;28;20023;-61
2023/04/20 12:08:38;;;;;;;2.77;2.03;;;;;;;;;;5110284;28;20042;-61
2023/04/20 12:11:05;;;;;;;3.10;1.90;;;;;;;;;;5110253;28;20027;-61
2023/04/20 12:13:32;;;;;;;2.30;1.73;;;;;;;;;;5110095;28;20522;-62
2023/04/20 12:15:59;;;;;;;3.23;2.47;;;;;;;;;;5113343;28;20295;-62
2023/04/20 12:18:25;;;;;;;11.10;2.43;;;;;;;;;;5115124;28;20381;-61
2023/04/20 12:20:52;;;;;;;16.97;2.83;;;;;;;;;;5115066;28;20369;-61
2023/04/20 12:23:19;;;;;;;3.20;2.53;;;;;;;;;;5115104;28;20024;-62
2023/04/20 12:25:46;;;;;;;2.30;1.77;;;;;;;;;;5114934;28;20030;-62
2023/04/20 12:28:15;;;;;;;4.50;2.10;;;;;;;;;;5110766;28;20040;-62
2023/04/20 12:30:42;;;;;;;3.03;2.23;;;;;;;;;;5109955;28;20477;-61
2023/04/20 12:33:08;;;;;;;2.43;1.77;;;;;;;;;;5109660;28;20256;-61
2023/04/20 12:35:35;;;;;;;3.73;2.43;;;;;;;;;;5109741;28;20042;-61
2023/04/20 12:38:02;;;;;;;3.37;2.83;;;;;;;;;;5112402;28;20123;-61
2023/04/20 12:40:29;;;;;;;2.53;2.03;;;;;;;;;;5114736;28;20279;-62
2023/04/20 12:42:55;;;;;;;3.00;2.60;;;;;;;;;;5114349;28;20378;-61
2023/04/20 12:45:22;;;;;;;3.60;2.73;;;;;;;;;;5114425;28;20051;-62
2023/04/20 12:47:49;;;;;;;4.93;3.60;;;;;;;;;;5114638;28;20031;-61
2023/04/20 12:50:16;;;;;;;7.93;3.07;;;;;;;;;;5111304;28;20114;-61
2023/04/20 12:52:43;;;;;;;5.77;3.60;;;;;;;;;;5109672;28;20384;-61
2023/04/20 12:55:10;;;;;;;4.03;3.00;;;;;;;;;;5109522;28;20019;-62
2023/04/20 12:57:37;;;;;;;5.83;3.83;;;;;;;;;;5109458;28;20031;-61
2023/04/20 13:00:05;;;;;;;6.30;2.90;;;;;;;;;;5111244;28;20047;-61
2023/04/20 13:02:32;;;;;;;3.43;2.57;;;;;;;;;;5114139;28;20053;-62
2023/04/20 13:04:59;;;;;;;5.23;3.70;;;;;;;;;;5114327;28;20370;-61
2023/04/20 13:07:26;;;;;;;3.50;2.90;;;;;;;;;;5114017;28;20107;-61
2023/04/20 13:09:53;;;;;;;7.50;5.10;;;;;;;;;;5114200;28;20027;-61
2023/04/20 13:12:20;;;;;;;8.17;4.47;;;;;;;;;;5111516;28;20027;-62
2023/04/20 13:14:47;;;;;;;6.10;4.40;;;;;;;;;;5109031;28;20098;-62
2023/04/20 13:17:14;;;;;;;6.07;4.13;;;;;;;;;;5108659;28;20023;-61
2023/04/20 13:19:40;;;;;;;8.07;5.73;;;;;;;;;;5108670;28;20497;-62
2023/04/20 13:22:07;;;;;;;5.30;4.07;;;;;;;;;;5110595;28;20023;-61
2023/04/20 13:24:34;;;;;;;5.53;4.03;;;;;;;;;;5113760;28;20397;-62
2023/04/20 13:27:01;;;;;;;4.57;3.07;;;;;;;;;;5113740;28;20023;-62
2023/04/20 13:29:28;;;;;;;8.10;3.37;;;;;;;;;;5113563;28;20039;-62
2023/04/20 13:31:55;;;;;;;4.23;3.27;;;;;;;;;;5113525;28;20493;-62
2023/04/20 13:34:21;;;;;;;7.10;4.53;;;;;;;;;;5111648;28;20523;-62
2023/04/20 13:36:48;;;;;;;4.80;3.30;;;;;;;;;;5108375;28;20114;-62
2023/04/20 13:39:16;;;;;;;3.10;2.27;;;;;;;;;;5108675;28;20435;-61
2023/04/20 13:41:43;;;;;;;16.63;3.37;;;;;;;;;;5108559;28;20072;-62
2023/04/20 13:44:14;;;;;;;4.63;3.53;;;;;;;;;;5109485;28;20445;-62
2023/04/20 13:46:45;;;;;;;3.03;2.57;;;;;;;;;;5113440;28;20026;-62
2023/04/20 13:49:12;;;;;;;4.00;3.00;;;;;;;;;;5113452;28;20039;-62
2023/04/20 13:51:39;;;;;;;4.87;3.13;;;;;;;;;;5113419;28;20102;-62
2023/04/20 13:54:06;;;;;;;4.57;3.37;;;;;;;;;;5113086;28;20023;-61
2023/04/20 13:56:33;;;;;;;5.33;3.70;;;;;;;;;;5111338;28;20016;-62
2023/04/20 13:59:02;;;;;;;4.07;3.20;;;;;;;;;;5107813;28;20434;-62
2023/04/20 14:01:30;;;;;;;4.40;3.07;;;;;;;;;;5108141;28;20462;-63
2023/04/20 14:03:57;;;;;;;4.07;3.23;;;;;;;;;;5108063;28;20051;-62
2023/04/20 14:06:23;;;;;;;4.83;3.73;;;;;;;;;;5109193;28;20365;-62
2023/04/20 14:08:50;;;;;;;9.63;4.87;;;;;;;;;;5113061;28;20038;-62
2023/04/20 14:11:17;;;;;;;14.30;4.63;;;;;;;;;;5112881;28;20015;-62
2023/04/20 14:13:44;;;;;;;6.27;4.27;;;;;;;;;;5112950;28;20094;-62
2023/04/20 14:16:13;;;;;;;7.13;5.13;;;;;;;;;;5112856;28;20470;-63
2023/04/20 14:18:40;;;;;;;6.50;4.43;;;;;;;;;;5111181;28;20084;-62
2023/04/20 14:21:09;;;;;;;5.30;4.60;;;;;;;;;;5107744;28;20028;-62
2023/04/20 14:23:36;;;;;;;7.53;4.50;;;;;;;;;;5107987;28;20535;-62
2023/04/20 14:26:03;;;;;;;5.57;4.40;;;;;;;;;;5107817;28;20031;-62
2023/04/20 14:28:30;;;;;;;5.27;4.20;;;;;;;;;;5108268;28;20930;-63
2023/04/20 14:30:57;;;;;;;4.57;4.07;;;;;;;;;;5112768;28;20035;-62
2023/04/20 14:33:24;;;;;;;6.60;3.70;;;;;;;;;;5112799;28;20020;-63
2023/04/20 14:35:53;;;;;;;5.37;4.00;;;;;;;;;;5112583;28;20027;-62
2023/04/20 14:38:20;;;;;;;5.70;4.20;;;;;;;;;;5112667;28;20070;-63
2023/04/20 14:40:47;;;;;;;5.03;3.30;;;;;;;;;;5111536;28;20019;-62
2023/04/20 14:43:14;;;;;;;5.70;4.33;;;;;;;;;;5107653;28;20031;-63
2023/04/20 14:45:43;;;;;;;5.57;4.03;;;;;;;;;;5107530;28;20439;-62
2023/04/20 14:48:10;;;;;;;5.00;3.47;;;;;;;;;;5107496;28;20043;-63
2023/04/20 14:50:37;;;;;;;4.20;3.07;;;;;;;;;;5107567;28;20051;-63